sensor_id;sensor_type;location;lat;lon;timestamp;temperature;humidity
22321;DHT22;11328;53.928;18.522;2022-08-21T00:01:42;23.50;99.90
22321;DHT22;11328;53.928;18.522;2022-08-21T00:04:10;23.50;99.90
22321;DHT22;11328;53.928;18.522;2022-08-21T00:06:40;23.40;99.90
22321;DHT22;11328;53.928;18.522;2022-08-21T00:09:08;23.40;99.90
22321;DHT22;11328;53.928;18.522;2022-08-21T00:11:40;23.30;99.90
22321;DHT22;11328;53.928;18.522;2022-08-21T00:14:08;23.20;99.90
22321;DHT22;11328;53.928;18.522;2022-08-21T00:16:36;23.10;99.90
22321;DHT22;11328;53.928;18.522;2022-08-21T00:19:05;23.00;99.90
22321;DHT22;11328;53.928;18.522;2022-08-21T00:21:34;22.90;99.90
22321;DHT22;11328;53.928;18.522;2022-08-21T00:24:02;22.80;99.90
22321;DHT22;11328;53.928;18.522;2022-08-21T00:26:30;22.80;99.90
22321;DHT22;11328;53.928;18.522;2022-08-21T00:28:57;22.80;99.90
22321;DHT22;11328;53.928;18.522;2022-08-21T00:31:24;22.80;99.90
22321;DHT22;11328;53.928;18.522;2022-08-21T00:33:51;22.80;99.90
22321;DHT22;11328;53.928;18.522;2022-08-21T00:36:26;22.80;99.90
22321;DHT22;11328;53.928;18.522;2022-08-21T00:38:53;22.70;99.90
22321;DHT22;11328;53.928;18.522;2022-08-21T00:41:21;22.70;99.90
22321;DHT22;11328;53.928;18.522;2022-08-21T00:44:06;22.60;99.90
22321;DHT22;11328;53.928;18.522;2022-08-21T00:46:36;22.60;99.90
22321;DHT22;11328;53.928;18.522;2022-08-21T00:49:06;22.60;99.90
22321;DHT22;11328;53.928;18.522;2022-08-21T00:54:26;22.40;99.90
22321;DHT22;11328;53.928;18.522;2022-08-21T00:57:00;22.40;99.90
22321;DHT22;11328;53.928;18.522;2022-08-21T00:59:35;22.50;99.90
22321;DHT22;11328;53.928;18.522;2022-08-21T01:02:05;22.50;99.90
22321;DHT22;11328;53.928;18.522;2022-08-21T01:04:34;22.50;99.90
22321;DHT22;11328;53.928;18.522;2022-08-21T01:07:02;22.50;99.90
22321;DHT22;11328;53.928;18.522;2022-08-21T01:09:29;22.50;99.90
22321;DHT22;11328;53.928;18.522;2022-08-21T01:11:56;22.50;99.90
22321;DHT22;11328;53.928;18.522;2022-08-21T01:14:23;22.60;99.90
22321;DHT22;11328;53.928;18.522;2022-08-21T01:16:52;22.50;99.90
22321;DHT22;11328;53.928;18.522;2022-08-21T01:19:21;22.50;99.90
22321;DHT22;11328;53.928;18.522;2022-08-21T01:21:49;22.40;99.90
22321;DHT22;11328;53.928;18.522;2022-08-21T01:24:16;22.40;99.90
22321;DHT22;11328;53.928;18.522;2022-08-21T01:26:44;22.50;99.90
22321;DHT22;11328;53.928;18.522;2022-08-21T01:31:49;22.70;99.90
22321;DHT22;11328;53.928;18.522;2022-08-21T01:34:17;22.80;99.90
22321;DHT22;11328;53.928;18.522;2022-08-21T01:36:46;22.70;99.90
22321;DHT22;11328;53.928;18.522;2022-08-21T01:39:14;22.50;99.90
22321;DHT22;11328;53.928;18.522;2022-08-21T01:41:41;22.40;99.90
22321;DHT22;11328;53.928;18.522;2022-08-21T01:44:09;22.40;99.90
22321;DHT22;11328;53.928;18.522;2022-08-21T01:46:36;22.40;99.90
22321;DHT22;11328;53.928;18.522;2022-08-21T01:49:04;22.40;99.90
22321;DHT22;11328;53.928;18.522;2022-08-21T01:51:32;22.40;99.90
22321;DHT22;11328;53.928;18.522;2022-08-21T01:53:59;22.40;99.90
22321;DHT22;11328;53.928;18.522;2022-08-21T01:56:26;22.30;99.90
22321;DHT22;11328;53.928;18.522;2022-08-21T01:58:55;22.20;99.90
22321;DHT22;11328;53.928;18.522;2022-08-21T02:01:22;22.20;99.90
22321;DHT22;11328;53.928;18.522;2022-08-21T02:03:49;22.20;99.90
22321;DHT22;11328;53.928;18.522;2022-08-21T02:06:16;22.00;99.90
22321;DHT22;11328;53.928;18.522;2022-08-21T02:08:45;21.90;99.90
22321;DHT22;11328;53.928;18.522;2022-08-21T02:11:13;21.90;99.90
22321;DHT22;11328;53.928;18.522;2022-08-21T02:13:40;21.80;99.90
22321;DHT22;11328;53.928;18.522;2022-08-21T02:16:09;21.70;99.90
22321;DHT22;11328;53.928;18.522;2022-08-21T02:18:39;21.70;99.90
22321;DHT22;11328;53.928;18.522;2022-08-21T02:21:06;21.70;99.90
22321;DHT22;11328;53.928;18.522;2022-08-21T02:23:33;21.70;99.90
22321;DHT22;11328;53.928;18.522;2022-08-21T02:26:03;21.70;99.90
22321;DHT22;11328;53.928;18.522;2022-08-21T02:28:33;21.70;99.90
22321;DHT22;11328;53.928;18.522;2022-08-21T02:31:02;21.80;99.90
22321;DHT22;11328;53.928;18.522;2022-08-21T02:33:29;21.80;99.90
22321;DHT22;11328;53.928;18.522;2022-08-21T02:35:57;21.80;99.90
22321;DHT22;11328;53.928;18.522;2022-08-21T02:38:28;21.80;99.90
22321;DHT22;11328;53.928;18.522;2022-08-21T02:40:56;21.80;99.90
22321;DHT22;11328;53.928;18.522;2022-08-21T02:43:26;21.80;99.90
22321;DHT22;11328;53.928;18.522;2022-08-21T02:45:56;21.80;99.90
22321;DHT22;11328;53.928;18.522;2022-08-21T02:48:29;21.80;99.90
22321;DHT22;11328;53.928;18.522;2022-08-21T02:51:17;21.90;99.90
22321;DHT22;11328;53.928;18.522;2022-08-21T02:53:49;21.90;99.90
22321;DHT22;11328;53.928;18.522;2022-08-21T02:56:19;22.00;99.90
22321;DHT22;11328;53.928;18.522;2022-08-21T02:58:50;22.00;99.90
22321;DHT22;11328;53.928;18.522;2022-08-21T03:01:20;22.10;99.90
22321;DHT22;11328;53.928;18.522;2022-08-21T03:03:47;22.10;99.90
22321;DHT22;11328;53.928;18.522;2022-08-21T03:06:21;22.10;99.90
22321;DHT22;11328;53.928;18.522;2022-08-21T03:08:49;22.10;99.90
22321;DHT22;11328;53.928;18.522;2022-08-21T03:11:16;22.10;99.90
22321;DHT22;11328;53.928;18.522;2022-08-21T03:13:44;22.00;99.90
22321;DHT22;11328;53.928;18.522;2022-08-21T03:16:11;22.00;99.90
22321;DHT22;11328;53.928;18.522;2022-08-21T03:18:38;22.00;99.90
22321;DHT22;11328;53.928;18.522;2022-08-21T03:21:06;21.90;99.90
22321;DHT22;11328;53.928;18.522;2022-08-21T03:23:33;22.00;99.90
22321;DHT22;11328;53.928;18.522;2022-08-21T03:26:00;22.00;99.90
22321;DHT22;11328;53.928;18.522;2022-08-21T03:28:28;22.00;99.90
22321;DHT22;11328;53.928;18.522;2022-08-21T03:30:54;22.10;99.90
22321;DHT22;11328;53.928;18.522;2022-08-21T03:33:22;22.00;99.90
22321;DHT22;11328;53.928;18.522;2022-08-21T03:36:02;22.00;99.90
22321;DHT22;11328;53.928;18.522;2022-08-21T03:38:32;22.10;99.90
22321;DHT22;11328;53.928;18.522;2022-08-21T03:41:01;22.10;99.90
22321;DHT22;11328;53.928;18.522;2022-08-21T03:43:28;22.20;99.90
22321;DHT22;11328;53.928;18.522;2022-08-21T03:45:58;22.10;99.90
22321;DHT22;11328;53.928;18.522;2022-08-21T03:48:27;22.10;99.90
22321;DHT22;11328;53.928;18.522;2022-08-21T03:50:55;22.10;99.90
22321;DHT22;11328;53.928;18.522;2022-08-21T03:53:23;22.10;99.90
22321;DHT22;11328;53.928;18.522;2022-08-21T03:55:52;22.20;99.90
22321;DHT22;11328;53.928;18.522;2022-08-21T03:58:22;22.20;99.90
22321;DHT22;11328;53.928;18.522;2022-08-21T04:00:52;22.20;99.90
22321;DHT22;11328;53.928;18.522;2022-08-21T04:03:22;22.20;99.90
22321;DHT22;11328;53.928;18.522;2022-08-21T04:05:50;22.20;99.90
22321;DHT22;11328;53.928;18.522;2022-08-21T04:08:18;22.10;99.90
22321;DHT22;11328;53.928;18.522;2022-08-21T04:10:48;22.20;99.90
22321;DHT22;11328;53.928;18.522;2022-08-21T04:13:17;22.10;99.90
22321;DHT22;11328;53.928;18.522;2022-08-21T04:15:44;22.10;99.90
22321;DHT22;11328;53.928;18.522;2022-08-21T04:18:11;22.10;99.90
22321;DHT22;11328;53.928;18.522;2022-08-21T04:20:40;22.20;99.90
22321;DHT22;11328;53.928;18.522;2022-08-21T04:23:17;22.20;99.90
22321;DHT22;11328;53.928;18.522;2022-08-21T04:25:51;22.30;99.90
22321;DHT22;11328;53.928;18.522;2022-08-21T04:28:20;22.20;99.90
22321;DHT22;11328;53.928;18.522;2022-08-21T04:30:50;22.20;99.90
22321;DHT22;11328;53.928;18.522;2022-08-21T04:33:19;22.20;99.90
22321;DHT22;11328;53.928;18.522;2022-08-21T04:35:48;22.20;99.90
22321;DHT22;11328;53.928;18.522;2022-08-21T04:38:16;22.30;99.90
22321;DHT22;11328;53.928;18.522;2022-08-21T04:40:43;22.30;99.90
22321;DHT22;11328;53.928;18.522;2022-08-21T04:43:11;22.40;99.90
22321;DHT22;11328;53.928;18.522;2022-08-21T04:45:41;22.40;99.90
22321;DHT22;11328;53.928;18.522;2022-08-21T04:48:13;22.40;99.90
22321;DHT22;11328;53.928;18.522;2022-08-21T04:53:33;22.40;99.90
22321;DHT22;11328;53.928;18.522;2022-08-21T04:56:30;22.50;99.90
22321;DHT22;11328;53.928;18.522;2022-08-21T04:59:05;22.60;99.90
22321;DHT22;11328;53.928;18.522;2022-08-21T05:01:37;22.70;99.90
22321;DHT22;11328;53.928;18.522;2022-08-21T05:04:09;22.60;99.90
22321;DHT22;11328;53.928;18.522;2022-08-21T05:06:41;22.70;99.90
22321;DHT22;11328;53.928;18.522;2022-08-21T05:09:13;22.70;99.90
22321;DHT22;11328;53.928;18.522;2022-08-21T05:11:41;22.70;99.90
22321;DHT22;11328;53.928;18.522;2022-08-21T05:14:10;22.70;99.90
22321;DHT22;11328;53.928;18.522;2022-08-21T05:16:38;22.80;99.90
22321;DHT22;11328;53.928;18.522;2022-08-21T05:19:07;22.70;99.90
22321;DHT22;11328;53.928;18.522;2022-08-21T05:21:36;22.70;99.90
22321;DHT22;11328;53.928;18.522;2022-08-21T05:24:05;22.70;99.90
22321;DHT22;11328;53.928;18.522;2022-08-21T05:26:33;22.80;99.90
22321;DHT22;11328;53.928;18.522;2022-08-21T05:29:13;22.70;99.90
22321;DHT22;11328;53.928;18.522;2022-08-21T05:31:44;22.70;99.90
22321;DHT22;11328;53.928;18.522;2022-08-21T05:34:14;22.60;99.90
22321;DHT22;11328;53.928;18.522;2022-08-21T05:36:45;22.70;99.90
22321;DHT22;11328;53.928;18.522;2022-08-21T05:39:13;22.70;99.90
22321;DHT22;11328;53.928;18.522;2022-08-21T05:41:41;22.70;99.90
22321;DHT22;11328;53.928;18.522;2022-08-21T05:44:08;22.70;99.90
22321;DHT22;11328;53.928;18.522;2022-08-21T05:46:37;22.70;99.90
22321;DHT22;11328;53.928;18.522;2022-08-21T05:49:05;22.70;99.90
22321;DHT22;11328;53.928;18.522;2022-08-21T05:51:32;22.60;99.90
22321;DHT22;11328;53.928;18.522;2022-08-21T05:53:59;22.70;99.90
22321;DHT22;11328;53.928;18.522;2022-08-21T05:56:26;22.70;99.90
22321;DHT22;11328;53.928;18.522;2022-08-21T05:58:53;22.70;99.90
22321;DHT22;11328;53.928;18.522;2022-08-21T06:01:20;22.70;99.90
22321;DHT22;11328;53.928;18.522;2022-08-21T06:03:47;22.80;99.90
22321;DHT22;11328;53.928;18.522;2022-08-21T06:06:14;22.70;99.90
22321;DHT22;11328;53.928;18.522;2022-08-21T06:08:41;22.60;99.90
22321;DHT22;11328;53.928;18.522;2022-08-21T06:11:09;22.60;99.90
22321;DHT22;11328;53.928;18.522;2022-08-21T06:13:37;22.50;99.90
22321;DHT22;11328;53.928;18.522;2022-08-21T06:16:11;22.60;99.90
22321;DHT22;11328;53.928;18.522;2022-08-21T06:18:43;22.70;99.90
22321;DHT22;11328;53.928;18.522;2022-08-21T06:21:11;22.80;99.90
22321;DHT22;11328;53.928;18.522;2022-08-21T06:23:40;22.80;99.90
22321;DHT22;11328;53.928;18.522;2022-08-21T06:26:09;22.80;99.90
22321;DHT22;11328;53.928;18.522;2022-08-21T06:28:38;22.80;99.90
22321;DHT22;11328;53.928;18.522;2022-08-21T06:31:18;22.70;99.90
22321;DHT22;11328;53.928;18.522;2022-08-21T06:33:51;22.70;99.90
22321;DHT22;11328;53.928;18.522;2022-08-21T06:36:20;22.70;99.90
22321;DHT22;11328;53.928;18.522;2022-08-21T06:38:47;22.70;99.90
22321;DHT22;11328;53.928;18.522;2022-08-21T06:41:18;22.60;99.90
22321;DHT22;11328;53.928;18.522;2022-08-21T06:43:52;22.60;99.90
22321;DHT22;11328;53.928;18.522;2022-08-21T06:46:20;22.50;99.90
22321;DHT22;11328;53.928;18.522;2022-08-21T06:48:48;22.50;99.90
22321;DHT22;11328;53.928;18.522;2022-08-21T06:51:15;22.50;99.90
22321;DHT22;11328;53.928;18.522;2022-08-21T06:53:42;22.60;99.90
22321;DHT22;11328;53.928;18.522;2022-08-21T06:56:09;22.60;99.90
22321;DHT22;11328;53.928;18.522;2022-08-21T06:58:36;22.50;99.90
22321;DHT22;11328;53.928;18.522;2022-08-21T07:01:05;22.60;99.90
22321;DHT22;11328;53.928;18.522;2022-08-21T07:03:38;22.60;99.90
22321;DHT22;11328;53.928;18.522;2022-08-21T07:06:08;22.60;99.90
22321;DHT22;11328;53.928;18.522;2022-08-21T07:08:37;22.60;99.90
22321;DHT22;11328;53.928;18.522;2022-08-21T07:11:10;22.50;99.90
22321;DHT22;11328;53.928;18.522;2022-08-21T07:13:41;22.50;99.90
22321;DHT22;11328;53.928;18.522;2022-08-21T07:16:12;22.50;99.90
22321;DHT22;11328;53.928;18.522;2022-08-21T07:18:39;22.50;99.90
22321;DHT22;11328;53.928;18.522;2022-08-21T07:21:07;22.50;99.90
22321;DHT22;11328;53.928;18.522;2022-08-21T07:23:38;22.50;99.90
22321;DHT22;11328;53.928;18.522;2022-08-21T07:26:09;22.60;99.90
22321;DHT22;11328;53.928;18.522;2022-08-21T07:28:37;22.70;99.90
22321;DHT22;11328;53.928;18.522;2022-08-21T07:31:05;22.80;99.90
22321;DHT22;11328;53.928;18.522;2022-08-21T07:33:34;22.90;99.90
22321;DHT22;11328;53.928;18.522;2022-08-21T07:36:02;23.00;99.90
22321;DHT22;11328;53.928;18.522;2022-08-21T07:38:29;23.00;99.90
22321;DHT22;11328;53.928;18.522;2022-08-21T07:40:57;23.10;99.90
22321;DHT22;11328;53.928;18.522;2022-08-21T07:43:27;23.10;99.90
22321;DHT22;11328;53.928;18.522;2022-08-21T07:45:55;23.10;99.90
22321;DHT22;11328;53.928;18.522;2022-08-21T07:48:23;23.20;99.90
22321;DHT22;11328;53.928;18.522;2022-08-21T07:50:50;23.10;99.90
22321;DHT22;11328;53.928;18.522;2022-08-21T07:53:18;23.10;99.90
22321;DHT22;11328;53.928;18.522;2022-08-21T07:55:45;23.10;99.90
22321;DHT22;11328;53.928;18.522;2022-08-21T07:58:15;23.10;99.90
22321;DHT22;11328;53.928;18.522;2022-08-21T08:00:42;23.10;99.90
22321;DHT22;11328;53.928;18.522;2022-08-21T08:03:09;23.10;99.90
22321;DHT22;11328;53.928;18.522;2022-08-21T08:05:36;23.20;99.90
22321;DHT22;11328;53.928;18.522;2022-08-21T08:08:05;23.10;99.90
22321;DHT22;11328;53.928;18.522;2022-08-21T08:10:32;23.10;99.90
22321;DHT22;11328;53.928;18.522;2022-08-21T08:13:00;23.10;99.90
22321;DHT22;11328;53.928;18.522;2022-08-21T08:15:28;23.10;99.90
22321;DHT22;11328;53.928;18.522;2022-08-21T08:17:58;23.10;99.90
22321;DHT22;11328;53.928;18.522;2022-08-21T08:20:26;23.10;99.90
22321;DHT22;11328;53.928;18.522;2022-08-21T08:22:54;23.10;99.90
22321;DHT22;11328;53.928;18.522;2022-08-21T08:25:23;23.10;99.90
22321;DHT22;11328;53.928;18.522;2022-08-21T08:27:52;22.90;99.90
22321;DHT22;11328;53.928;18.522;2022-08-21T08:30:21;22.90;99.90
22321;DHT22;11328;53.928;18.522;2022-08-21T08:32:50;22.90;99.90
22321;DHT22;11328;53.928;18.522;2022-08-21T08:35:18;22.80;99.90
22321;DHT22;11328;53.928;18.522;2022-08-21T08:37:49;22.70;99.90
22321;DHT22;11328;53.928;18.522;2022-08-21T08:40:26;22.70;99.90
22321;DHT22;11328;53.928;18.522;2022-08-21T08:43:00;22.60;99.90
22321;DHT22;11328;53.928;18.522;2022-08-21T08:45:30;22.60;99.90
22321;DHT22;11328;53.928;18.522;2022-08-21T08:48:04;22.60;99.90
22321;DHT22;11328;53.928;18.522;2022-08-21T08:50:53;22.70;99.90
22321;DHT22;11328;53.928;18.522;2022-08-21T08:53:30;22.70;99.90
22321;DHT22;11328;53.928;18.522;2022-08-21T08:56:00;22.70;99.90
22321;DHT22;11328;53.928;18.522;2022-08-21T08:58:37;22.80;99.90
22321;DHT22;11328;53.928;18.522;2022-08-21T09:01:14;22.90;99.90
22321;DHT22;11328;53.928;18.522;2022-08-21T09:03:45;22.70;99.90
22321;DHT22;11328;53.928;18.522;2022-08-21T09:15:33;22.80;99.90
22321;DHT22;11328;53.928;18.522;2022-08-21T09:27:02;22.90;99.90
22321;DHT22;11328;53.928;18.522;2022-08-21T09:29:42;23.00;99.90
22321;DHT22;11328;53.928;18.522;2022-08-21T09:32:23;23.10;99.90
22321;DHT22;11328;53.928;18.522;2022-08-21T09:35:18;23.20;99.90
22321;DHT22;11328;53.928;18.522;2022-08-21T09:45:40;23.10;99.90
22321;DHT22;11328;53.928;18.522;2022-08-21T09:48:19;23.10;99.90
22321;DHT22;11328;53.928;18.522;2022-08-21T09:50:53;23.20;99.90
22321;DHT22;11328;53.928;18.522;2022-08-21T09:53:55;23.20;99.90
22321;DHT22;11328;53.928;18.522;2022-08-21T09:56:37;23.10;99.90
22321;DHT22;11328;53.928;18.522;2022-08-21T09:59:47;23.20;99.90
22321;DHT22;11328;53.928;18.522;2022-08-21T10:02:32;23.20;99.90
22321;DHT22;11328;53.928;18.522;2022-08-21T10:05:15;23.20;99.90
22321;DHT22;11328;53.928;18.522;2022-08-21T10:07:52;23.20;99.90
22321;DHT22;11328;53.928;18.522;2022-08-21T10:16:27;23.10;99.90
22321;DHT22;11328;53.928;18.522;2022-08-21T10:26:00;23.00;99.90
22321;DHT22;11328;53.928;18.522;2022-08-21T10:28:53;23.10;99.90
22321;DHT22;11328;53.928;18.522;2022-08-21T10:31:57;23.10;99.90
22321;DHT22;11328;53.928;18.522;2022-08-21T10:35:13;23.20;99.90
22321;DHT22;11328;53.928;18.522;2022-08-21T10:42:02;23.10;99.90
22321;DHT22;11328;53.928;18.522;2022-08-21T10:47:51;22.90;99.90
22321;DHT22;11328;53.928;18.522;2022-08-21T10:50:30;22.90;99.90
22321;DHT22;11328;53.928;18.522;2022-08-21T10:55:59;23.00;99.90
22321;DHT22;11328;53.928;18.522;2022-08-21T10:58:49;23.00;99.90
22321;DHT22;11328;53.928;18.522;2022-08-21T11:01:44;22.90;99.90
22321;DHT22;11328;53.928;18.522;2022-08-21T11:04:34;22.80;99.90
22321;DHT22;11328;53.928;18.522;2022-08-21T11:08:02;22.80;99.90
22321;DHT22;11328;53.928;18.522;2022-08-21T11:10:37;22.80;99.90
22321;DHT22;11328;53.928;18.522;2022-08-21T11:13:51;22.80;99.90
22321;DHT22;11328;53.928;18.522;2022-08-21T11:16:42;22.80;99.90
22321;DHT22;11328;53.928;18.522;2022-08-21T11:19:21;22.90;99.90
22321;DHT22;11328;53.928;18.522;2022-08-21T11:22:13;22.90;99.90
22321;DHT22;11328;53.928;18.522;2022-08-21T11:28:17;23.00;99.90
22321;DHT22;11328;53.928;18.522;2022-08-21T11:36:08;22.60;99.90
22321;DHT22;11328;53.928;18.522;2022-08-21T11:42:14;22.60;99.90
22321;DHT22;11328;53.928;18.522;2022-08-21T11:51:17;22.40;99.90
22321;DHT22;11328;53.928;18.522;2022-08-21T11:54:05;22.30;99.90
22321;DHT22;11328;53.928;18.522;2022-08-21T11:57:08;22.30;99.90
22321;DHT22;11328;53.928;18.522;2022-08-21T12:02:29;22.20;99.90
22321;DHT22;11328;53.928;18.522;2022-08-21T12:05:11;22.20;99.90
22321;DHT22;11328;53.928;18.522;2022-08-21T12:08:42;22.00;99.90
22321;DHT22;11328;53.928;18.522;2022-08-21T12:16:37;21.70;99.90
22321;DHT22;11328;53.928;18.522;2022-08-21T12:19:12;21.70;99.90
22321;DHT22;11328;53.928;18.522;2022-08-21T12:22:10;21.80;99.90
22321;DHT22;11328;53.928;18.522;2022-08-21T12:24:48;21.80;99.90
22321;DHT22;11328;53.928;18.522;2022-08-21T12:27:53;21.70;99.90
22321;DHT22;11328;53.928;18.522;2022-08-21T12:30:36;21.60;99.90
22321;DHT22;11328;53.928;18.522;2022-08-21T12:33:37;21.50;99.90
22321;DHT22;11328;53.928;18.522;2022-08-21T12:36:18;21.40;99.90
22321;DHT22;11328;53.928;18.522;2022-08-21T12:39:03;21.20;99.90
22321;DHT22;11328;53.928;18.522;2022-08-21T12:41:51;21.00;99.90
22321;DHT22;11328;53.928;18.522;2022-08-21T12:44:43;20.70;99.90
22321;DHT22;11328;53.928;18.522;2022-08-21T12:47:45;20.40;99.90
22321;DHT22;11328;53.928;18.522;2022-08-21T12:53:55;20.40;99.90
22321;DHT22;11328;53.928;18.522;2022-08-21T12:56:27;20.20;99.90
22321;DHT22;11328;53.928;18.522;2022-08-21T12:59:02;20.20;99.90
22321;DHT22;11328;53.928;18.522;2022-08-21T13:01:43;20.10;99.90
22321;DHT22;11328;53.928;18.522;2022-08-21T13:04:20;19.90;99.90
22321;DHT22;11328;53.928;18.522;2022-08-21T13:07:00;20.00;99.90
22321;DHT22;11328;53.928;18.522;2022-08-21T13:09:29;20.00;99.90
22321;DHT22;11328;53.928;18.522;2022-08-21T13:11:58;19.90;99.90
22321;DHT22;11328;53.928;18.522;2022-08-21T13:14:39;19.90;99.90
22321;DHT22;11328;53.928;18.522;2022-08-21T13:17:16;19.90;99.90
22321;DHT22;11328;53.928;18.522;2022-08-21T13:20:00;19.80;99.90
22321;DHT22;11328;53.928;18.522;2022-08-21T13:22:40;19.80;99.90
22321;DHT22;11328;53.928;18.522;2022-08-21T13:25:17;19.90;99.90
22321;DHT22;11328;53.928;18.522;2022-08-21T13:28:04;19.80;99.90
22321;DHT22;11328;53.928;18.522;2022-08-21T13:30:34;19.90;99.90
22321;DHT22;11328;53.928;18.522;2022-08-21T13:33:06;19.70;99.90
22321;DHT22;11328;53.928;18.522;2022-08-21T13:38:30;19.80;99.90
22321;DHT22;11328;53.928;18.522;2022-08-21T13:41:34;19.80;99.90
22321;DHT22;11328;53.928;18.522;2022-08-21T13:46:46;19.70;99.90
22321;DHT22;11328;53.928;18.522;2022-08-21T13:49:19;19.80;99.90
22321;DHT22;11328;53.928;18.522;2022-08-21T13:51:50;19.70;99.90
22321;DHT22;11328;53.928;18.522;2022-08-21T13:54:33;19.70;99.90
22321;DHT22;11328;53.928;18.522;2022-08-21T13:57:23;19.70;99.90
22321;DHT22;11328;53.928;18.522;2022-08-21T14:00:28;19.80;99.90
22321;DHT22;11328;53.928;18.522;2022-08-21T14:03:07;19.90;99.90
22321;DHT22;11328;53.928;18.522;2022-08-21T14:05:45;19.80;99.90
22321;DHT22;11328;53.928;18.522;2022-08-21T14:08:18;19.70;99.90
22321;DHT22;11328;53.928;18.522;2022-08-21T14:11:05;19.70;99.90
22321;DHT22;11328;53.928;18.522;2022-08-21T14:14:00;19.60;99.90
22321;DHT22;11328;53.928;18.522;2022-08-21T14:16:45;19.70;99.90
22321;DHT22;11328;53.928;18.522;2022-08-21T14:19:52;19.80;99.90
22321;DHT22;11328;53.928;18.522;2022-08-21T14:22:38;19.80;99.90
22321;DHT22;11328;53.928;18.522;2022-08-21T14:25:10;19.80;99.90
22321;DHT22;11328;53.928;18.522;2022-08-21T14:27:51;19.90;99.90
22321;DHT22;11328;53.928;18.522;2022-08-21T14:30:34;20.00;99.90
22321;DHT22;11328;53.928;18.522;2022-08-21T14:33:07;19.90;99.90
22321;DHT22;11328;53.928;18.522;2022-08-21T14:35:37;19.80;99.90
22321;DHT22;11328;53.928;18.522;2022-08-21T14:38:17;19.90;99.90
22321;DHT22;11328;53.928;18.522;2022-08-21T14:40:51;19.90;99.90
22321;DHT22;11328;53.928;18.522;2022-08-21T14:43:21;19.80;99.90
22321;DHT22;11328;53.928;18.522;2022-08-21T14:45:48;19.60;99.90
22321;DHT22;11328;53.928;18.522;2022-08-21T14:48:15;19.60;99.90
22321;DHT22;11328;53.928;18.522;2022-08-21T14:50:42;19.60;99.90
22321;DHT22;11328;53.928;18.522;2022-08-21T14:53:09;19.60;99.90
22321;DHT22;11328;53.928;18.522;2022-08-21T14:55:38;19.60;99.90
22321;DHT22;11328;53.928;18.522;2022-08-21T14:58:25;19.50;99.90
22321;DHT22;11328;53.928;18.522;2022-08-21T15:00:54;19.50;99.90
22321;DHT22;11328;53.928;18.522;2022-08-21T15:03:23;19.50;99.90
22321;DHT22;11328;53.928;18.522;2022-08-21T15:05:51;19.50;99.90
22321;DHT22;11328;53.928;18.522;2022-08-21T15:08:18;19.50;99.90
22321;DHT22;11328;53.928;18.522;2022-08-21T15:10:45;19.40;99.90
22321;DHT22;11328;53.928;18.522;2022-08-21T15:13:33;19.40;99.90
22321;DHT22;11328;53.928;18.522;2022-08-21T15:16:01;19.50;99.90
22321;DHT22;11328;53.928;18.522;2022-08-21T15:18:30;19.70;99.90
22321;DHT22;11328;53.928;18.522;2022-08-21T15:20:57;19.70;99.90
22321;DHT22;11328;53.928;18.522;2022-08-21T15:23:24;19.70;99.90
22321;DHT22;11328;53.928;18.522;2022-08-21T15:25:52;19.70;99.90
22321;DHT22;11328;53.928;18.522;2022-08-21T15:28:20;19.70;99.90
22321;DHT22;11328;53.928;18.522;2022-08-21T15:30:49;19.50;99.90
22321;DHT22;11328;53.928;18.522;2022-08-21T15:33:18;19.50;99.90
22321;DHT22;11328;53.928;18.522;2022-08-21T15:35:45;19.60;99.90
22321;DHT22;11328;53.928;18.522;2022-08-21T15:38:14;19.50;99.90
22321;DHT22;11328;53.928;18.522;2022-08-21T15:40:42;19.60;99.90
22321;DHT22;11328;53.928;18.522;2022-08-21T15:43:27;19.70;99.90
22321;DHT22;11328;53.928;18.522;2022-08-21T15:46:00;19.70;99.90
22321;DHT22;11328;53.928;18.522;2022-08-21T15:48:28;19.70;99.90
22321;DHT22;11328;53.928;18.522;2022-08-21T15:50:57;19.70;99.90
22321;DHT22;11328;53.928;18.522;2022-08-21T15:53:24;19.80;99.90
22321;DHT22;11328;53.928;18.522;2022-08-21T15:55:51;19.80;99.90
22321;DHT22;11328;53.928;18.522;2022-08-21T15:58:21;20.00;99.90
22321;DHT22;11328;53.928;18.522;2022-08-21T16:00:49;20.00;99.90
22321;DHT22;11328;53.928;18.522;2022-08-21T16:03:17;20.00;99.90
22321;DHT22;11328;53.928;18.522;2022-08-21T16:05:48;19.90;99.90
22321;DHT22;11328;53.928;18.522;2022-08-21T16:08:20;20.00;99.90
22321;DHT22;11328;53.928;18.522;2022-08-21T16:10:47;20.10;99.90
22321;DHT22;11328;53.928;18.522;2022-08-21T16:16:05;20.20;99.90
22321;DHT22;11328;53.928;18.522;2022-08-21T16:18:33;20.10;99.90
22321;DHT22;11328;53.928;18.522;2022-08-21T16:21:01;20.00;99.90
22321;DHT22;11328;53.928;18.522;2022-08-21T16:23:28;19.80;99.90
22321;DHT22;11328;53.928;18.522;2022-08-21T16:25:58;19.70;99.90
22321;DHT22;11328;53.928;18.522;2022-08-21T16:28:27;19.80;99.90
22321;DHT22;11328;53.928;18.522;2022-08-21T16:30:56;19.80;99.90
22321;DHT22;11328;53.928;18.522;2022-08-21T16:33:34;19.80;99.90
22321;DHT22;11328;53.928;18.522;2022-08-21T16:36:04;19.60;99.90
22321;DHT22;11328;53.928;18.522;2022-08-21T16:38:34;19.50;99.90
22321;DHT22;11328;53.928;18.522;2022-08-21T16:41:13;19.60;99.90
22321;DHT22;11328;53.928;18.522;2022-08-21T16:43:46;19.60;99.90
22321;DHT22;11328;53.928;18.522;2022-08-21T16:46:16;19.70;99.90
22321;DHT22;11328;53.928;18.522;2022-08-21T16:48:46;19.70;99.90
22321;DHT22;11328;53.928;18.522;2022-08-21T16:51:17;19.60;99.90
22321;DHT22;11328;53.928;18.522;2022-08-21T16:53:47;19.60;99.90
22321;DHT22;11328;53.928;18.522;2022-08-21T16:56:15;19.50;99.90
22321;DHT22;11328;53.928;18.522;2022-08-21T17:11:52;19.60;99.90
22321;DHT22;11328;53.928;18.522;2022-08-21T17:14:22;19.90;99.90
22321;DHT22;11328;53.928;18.522;2022-08-21T17:16:51;19.80;99.90
22321;DHT22;11328;53.928;18.522;2022-08-21T17:19:20;19.80;99.90
22321;DHT22;11328;53.928;18.522;2022-08-21T17:21:49;19.60;99.90
22321;DHT22;11328;53.928;18.522;2022-08-21T17:24:16;19.60;99.90
22321;DHT22;11328;53.928;18.522;2022-08-21T17:26:44;19.70;99.90
22321;DHT22;11328;53.928;18.522;2022-08-21T17:29:13;19.70;99.90
22321;DHT22;11328;53.928;18.522;2022-08-21T17:31:42;19.70;99.90
22321;DHT22;11328;53.928;18.522;2022-08-21T17:34:10;19.60;99.90
22321;DHT22;11328;53.928;18.522;2022-08-21T17:36:38;19.70;99.90
22321;DHT22;11328;53.928;18.522;2022-08-21T17:39:05;19.70;99.90
22321;DHT22;11328;53.928;18.522;2022-08-21T17:41:35;19.60;99.90